sensor_id;sensor_type;location;lat;lon;timestamp;P1;durP1;ratioP1;P2;durP2;ratioP2
7211;SDS011;3647;48.792;9.802;2023-03-14T05:26:11;1.80;;;1.20;;
7211;SDS011;3647;48.792;9.802;2023-03-14T05:28:38;3.80;;;1.43;;
7211;SDS011;3647;48.792;9.802;2023-03-14T05:31:06;1.43;;;1.33;;
7211;SDS011;3647;48.792;9.802;2023-03-14T05:33:33;3.93;;;1.50;;
7211;SDS011;3647;48.792;9.802;2023-03-14T05:36:00;2.47;;;2.37;;
7211;SDS011;3647;48.792;9.802;2023-03-14T05:38:26;2.03;;;1.80;;
7211;SDS011;3647;48.792;9.802;2023-03-14T05:40:53;2.60;;;1.67;;
7211;SDS011;3647;48.792;9.802;2023-03-14T05:43:21;3.40;;;2.03;;
7211;SDS011;3647;48.792;9.802;2023-03-14T05:45:48;2.13;;;1.57;;
7211;SDS011;3647;48.792;9.802;2023-03-14T05:48:15;1.83;;;1.33;;
7211;SDS011;3647;48.792;9.802;2023-03-14T05:50:43;1.93;;;1.70;;
7211;SDS011;3647;48.792;9.802;2023-03-14T05:53:10;4.47;;;1.87;;
7211;SDS011;3647;48.792;9.802;2023-03-14T05:55:37;2.23;;;1.80;;
7211;SDS011;3647;48.792;9.802;2023-03-14T05:58:04;3.30;;;1.50;;
7211;SDS011;3647;48.792;9.802;2023-03-14T06:00:32;2.80;;;1.40;;
7211;SDS011;3647;48.792;9.802;2023-03-14T06:02:59;3.43;;;1.70;;
7211;SDS011;3647;48.792;9.802;2023-03-14T06:05:26;2.20;;;1.20;;
7211;SDS011;3647;48.792;9.802;2023-03-14T06:07:53;5.07;;;1.57;;
7211;SDS011;3647;48.792;9.802;2023-03-14T06:10:19;4.37;;;1.50;;
7211;SDS011;3647;48.792;9.802;2023-03-14T13:32:59;1.43;;;1.40;;
7211;SDS011;3647;48.792;9.802;2023-03-14T13:35:38;2.43;;;1.47;;
7211;SDS011;3647;48.792;9.802;2023-03-14T13:38:13;1.83;;;1.50;;
7211;SDS011;3647;48.792;9.802;2023-03-14T13:40:43;3.70;;;2.13;;
7211;SDS011;3647;48.792;9.802;2023-03-14T13:43:13;1.80;;;1.70;;
7211;SDS011;3647;48.792;9.802;2023-03-14T13:45:48;1.40;;;1.40;;
7211;SDS011;3647;48.792;9.802;2023-03-14T13:48:18;1.30;;;1.20;;
7211;SDS011;3647;48.792;9.802;2023-03-14T13:50:51;1.20;;;1.20;;
7211;SDS011;3647;48.792;9.802;2023-03-14T13:53:20;1.10;;;1.10;;
7211;SDS011;3647;48.792;9.802;2023-03-14T13:55:48;1.37;;;1.30;;
7211;SDS011;3647;48.792;9.802;2023-03-14T13:58:19;2.87;;;1.37;;
7211;SDS011;3647;48.792;9.802;2023-03-14T14:01:01;3.40;;;1.37;;
7211;SDS011;3647;48.792;9.802;2023-03-14T14:03:33;1.37;;;1.27;;
7211;SDS011;3647;48.792;9.802;2023-03-14T14:06:10;1.27;;;1.27;;
7211;SDS011;3647;48.792;9.802;2023-03-14T14:08:47;1.40;;;1.40;;
7211;SDS011;3647;48.792;9.802;2023-03-14T14:11:18;1.97;;;1.40;;
7211;SDS011;3647;48.792;9.802;2023-03-14T14:13:48;2.40;;;1.40;;
7211;SDS011;3647;48.792;9.802;2023-03-14T14:16:16;2.03;;;1.93;;
7211;SDS011;3647;48.792;9.802;2023-03-14T14:18:52;2.23;;;1.50;;
7211;SDS011;3647;48.792;9.802;2023-03-14T14:21:22;1.57;;;1.47;;
7211;SDS011;3647;48.792;9.802;2023-03-14T14:23:49;2.07;;;1.67;;
7211;SDS011;3647;48.792;9.802;2023-03-14T14:26:17;2.10;;;1.33;;
7211;SDS011;3647;48.792;9.802;2023-03-14T14:28:45;1.70;;;1.47;;
7211;SDS011;3647;48.792;9.802;2023-03-14T14:31:18;1.57;;;1.40;;
7211;SDS011;3647;48.792;9.802;2023-03-14T14:33:54;2.27;;;1.43;;
7211;SDS011;3647;48.792;9.802;2023-03-14T14:36:22;1.20;;;1.20;;
7211;SDS011;3647;48.792;9.802;2023-03-14T14:38:52;1.40;;;1.30;;
7211;SDS011;3647;48.792;9.802;2023-03-14T14:41:20;1.37;;;1.27;;
7211;SDS011;3647;48.792;9.802;2023-03-14T14:43:47;1.37;;;1.27;;
7211;SDS011;3647;48.792;9.802;2023-03-14T14:46:16;3.47;;;1.50;;
7211;SDS011;3647;48.792;9.802;2023-03-14T14:48:45;6.33;;;1.73;;
7211;SDS011;3647;48.792;9.802;2023-03-14T14:51:30;9.30;;;1.73;;
7211;SDS011;3647;48.792;9.802;2023-03-14T14:54:02;1.60;;;1.30;;
7211;SDS011;3647;48.792;9.802;2023-03-14T14:56:36;2.00;;;1.50;;
7211;SDS011;3647;48.792;9.802;2023-03-14T14:59:04;2.50;;;1.50;;
7211;SDS011;3647;48.792;9.802;2023-03-14T15:01:33;1.30;;;1.30;;
7211;SDS011;3647;48.792;9.802;2023-03-14T15:04:02;3.20;;;1.40;;
7211;SDS011;3647;48.792;9.802;2023-03-14T15:06:37;2.07;;;1.57;;
7211;SDS011;3647;48.792;9.802;2023-03-14T15:09:04;1.83;;;1.40;;
7211;SDS011;3647;48.792;9.802;2023-03-14T15:11:31;2.30;;;1.67;;
7211;SDS011;3647;48.792;9.802;2023-03-14T15:13:58;1.70;;;1.40;;
7211;SDS011;3647;48.792;9.802;2023-03-14T15:16:27;1.80;;;1.40;;
7211;SDS011;3647;48.792;9.802;2023-03-14T15:18:55;2.67;;;1.80;;
7211;SDS011;3647;48.792;9.802;2023-03-14T15:21:23;1.90;;;1.50;;
7211;SDS011;3647;48.792;9.802;2023-03-14T15:23:52;2.30;;;1.60;;
7211;SDS011;3647;48.792;9.802;2023-03-14T15:26:20;5.07;;;1.90;;
7211;SDS011;3647;48.792;9.802;2023-03-14T15:28:48;4.23;;;1.77;;
7211;SDS011;3647;48.792;9.802;2023-03-14T15:31:16;3.33;;;1.60;;
7211;SDS011;3647;48.792;9.802;2023-03-14T15:33:44;3.87;;;1.77;;
7211;SDS011;3647;48.792;9.802;2023-03-14T15:36:16;2.07;;;1.83;;
7211;SDS011;3647;48.792;9.802;2023-03-14T15:38:48;2.10;;;1.90;;
7211;SDS011;3647;48.792;9.802;2023-03-14T15:41:16;2.33;;;1.50;;
7211;SDS011;3647;48.792;9.802;2023-03-14T15:43:43;4.37;;;1.80;;
7211;SDS011;3647;48.792;9.802;2023-03-14T15:46:10;3.20;;;3.00;;
7211;SDS011;3647;48.792;9.802;2023-03-14T15:48:37;3.10;;;1.80;;
7211;SDS011;3647;48.792;9.802;2023-03-14T15:51:05;3.33;;;1.53;;
7211;SDS011;3647;48.792;9.802;2023-03-14T15:53:32;2.77;;;1.67;;
7211;SDS011;3647;48.792;9.802;2023-03-14T15:56:01;3.17;;;1.70;;
7211;SDS011;3647;48.792;9.802;2023-03-14T15:58:30;4.20;;;1.73;;
7211;SDS011;3647;48.792;9.802;2023-03-14T16:00:59;3.43;;;1.63;;
7211;SDS011;3647;48.792;9.802;2023-03-14T16:03:25;4.80;;;1.83;;
7211;SDS011;3647;48.792;9.802;2023-03-14T16:05:52;1.70;;;1.60;;
7211;SDS011;3647;48.792;9.802;2023-03-14T16:08:20;3.07;;;2.83;;
7211;SDS011;3647;48.792;9.802;2023-03-14T16:10:46;2.70;;;1.63;;
7211;SDS011;3647;48.792;9.802;2023-03-14T16:13:14;2.60;;;1.57;;
7211;SDS011;3647;48.792;9.802;2023-03-14T16:15:43;3.97;;;1.97;;
7211;SDS011;3647;48.792;9.802;2023-03-14T16:18:18;2.07;;;1.70;;
7211;SDS011;3647;48.792;9.802;2023-03-14T16:20:50;3.17;;;1.70;;
7211;SDS011;3647;48.792;9.802;2023-03-14T16:23:18;1.80;;;1.70;;
7211;SDS011;3647;48.792;9.802;2023-03-14T16:25:44;2.37;;;1.70;;
7211;SDS011;3647;48.792;9.802;2023-03-14T16:28:11;3.23;;;1.80;;
7211;SDS011;3647;48.792;9.802;2023-03-14T16:30:38;2.70;;;1.60;;
7211;SDS011;3647;48.792;9.802;2023-03-14T16:33:06;3.87;;;1.73;;
7211;SDS011;3647;48.792;9.802;2023-03-14T16:35:34;2.43;;;2.10;;
7211;SDS011;3647;48.792;9.802;2023-03-14T16:38:01;3.23;;;2.10;;
7211;SDS011;3647;48.792;9.802;2023-03-14T16:40:28;1.90;;;1.80;;
7211;SDS011;3647;48.792;9.802;2023-03-14T16:42:54;2.07;;;1.80;;
7211;SDS011;3647;48.792;9.802;2023-03-14T16:45:21;3.30;;;1.77;;
7211;SDS011;3647;48.792;9.802;2023-03-14T16:47:48;4.63;;;1.77;;
7211;SDS011;3647;48.792;9.802;2023-03-14T16:50:16;3.53;;;2.13;;
7211;SDS011;3647;48.792;9.802;2023-03-14T16:52:43;6.93;;;1.93;;
7211;SDS011;3647;48.792;9.802;2023-03-14T16:55:12;2.70;;;1.70;;
7211;SDS011;3647;48.792;9.802;2023-03-14T16:57:38;2.93;;;1.53;;
7211;SDS011;3647;48.792;9.802;2023-03-14T17:00:06;2.20;;;2.00;;
7211;SDS011;3647;48.792;9.802;2023-03-14T17:02:35;1.67;;;1.57;;
7211;SDS011;3647;48.792;9.802;2023-03-14T17:05:02;1.80;;;1.70;;
7211;SDS011;3647;48.792;9.802;2023-03-14T17:07:31;2.47;;;2.03;;
7211;SDS011;3647;48.792;9.802;2023-03-14T17:09:58;1.67;;;1.50;;
7211;SDS011;3647;48.792;9.802;2023-03-14T17:12:24;2.00;;;1.80;;
7211;SDS011;3647;48.792;9.802;2023-03-14T17:14:51;2.57;;;1.70;;
7211;SDS011;3647;48.792;9.802;2023-03-14T17:17:19;4.33;;;2.00;;
7211;SDS011;3647;48.792;9.802;2023-03-14T17:19:46;2.93;;;1.97;;
7211;SDS011;3647;48.792;9.802;2023-03-14T17:22:13;2.83;;;2.13;;
7211;SDS011;3647;48.792;9.802;2023-03-14T17:24:41;2.33;;;2.10;;
7211;SDS011;3647;48.792;9.802;2023-03-14T17:27:08;2.20;;;2.00;;
7211;SDS011;3647;48.792;9.802;2023-03-14T17:29:34;3.13;;;1.90;;
7211;SDS011;3647;48.792;9.802;2023-03-14T17:32:01;3.90;;;2.70;;
7211;SDS011;3647;48.792;9.802;2023-03-14T17:34:28;2.47;;;1.93;;
7211;SDS011;3647;48.792;9.802;2023-03-14T17:36:55;4.60;;;1.90;;
7211;SDS011;3647;48.792;9.802;2023-03-14T17:39:21;2.03;;;1.70;;
7211;SDS011;3647;48.792;9.802;2023-03-14T17:41:50;3.70;;;1.90;;
7211;SDS011;3647;48.792;9.802;2023-03-14T17:44:16;4.07;;;2.07;;
7211;SDS011;3647;48.792;9.802;2023-03-14T17:46:43;2.10;;;1.93;;
7211;SDS011;3647;48.792;9.802;2023-03-14T17:49:10;3.23;;;2.50;;
7211;SDS011;3647;48.792;9.802;2023-03-14T17:51:37;5.57;;;2.73;;
7211;SDS011;3647;48.792;9.802;2023-03-14T17:54:03;2.93;;;2.10;;
7211;SDS011;3647;48.792;9.802;2023-03-14T17:56:30;5.10;;;2.30;;
7211;SDS011;3647;48.792;9.802;2023-03-14T17:58:59;2.80;;;2.13;;
7211;SDS011;3647;48.792;9.802;2023-03-14T18:01:26;4.40;;;2.30;;
7211;SDS011;3647;48.792;9.802;2023-03-14T18:03:53;4.17;;;2.07;;
7211;SDS011;3647;48.792;9.802;2023-03-14T18:06:21;2.63;;;1.87;;
7211;SDS011;3647;48.792;9.802;2023-03-14T18:08:51;2.70;;;2.00;;
7211;SDS011;3647;48.792;9.802;2023-03-14T18:11:19;4.80;;;2.10;;
7211;SDS011;3647;48.792;9.802;2023-03-14T18:13:45;3.17;;;1.93;;
7211;SDS011;3647;48.792;9.802;2023-03-14T18:16:13;2.13;;;2.03;;
7211;SDS011;3647;48.792;9.802;2023-03-14T18:18:41;2.00;;;1.90;;
7211;SDS011;3647;48.792;9.802;2023-03-14T18:21:08;5.93;;;2.40;;
7211;SDS011;3647;48.792;9.802;2023-03-14T18:23:35;3.90;;;2.10;;
7211;SDS011;3647;48.792;9.802;2023-03-14T18:26:02;2.60;;;2.10;;
7211;SDS011;3647;48.792;9.802;2023-03-14T18:28:29;3.33;;;2.33;;
7211;SDS011;3647;48.792;9.802;2023-03-14T18:30:59;2.03;;;1.90;;
7211;SDS011;3647;48.792;9.802;2023-03-14T18:33:28;3.07;;;2.43;;
7211;SDS011;3647;48.792;9.802;2023-03-14T18:36:01;2.53;;;2.17;;
7211;SDS011;3647;48.792;9.802;2023-03-14T18:38:28;4.73;;;2.67;;
7211;SDS011;3647;48.792;9.802;2023-03-14T18:40:55;2.43;;;2.20;;
7211;SDS011;3647;48.792;9.802;2023-03-14T18:43:27;2.60;;;2.00;;
7211;SDS011;3647;48.792;9.802;2023-03-14T18:45:56;2.97;;;1.90;;
7211;SDS011;3647;48.792;9.802;2023-03-14T18:48:22;5.80;;;2.20;;
7211;SDS011;3647;48.792;9.802;2023-03-14T18:50:51;6.03;;;2.23;;
7211;SDS011;3647;48.792;9.802;2023-03-14T18:53:17;4.63;;;2.43;;
7211;SDS011;3647;48.792;9.802;2023-03-14T18:55:45;3.23;;;2.50;;
7211;SDS011;3647;48.792;9.802;2023-03-14T18:58:12;4.00;;;2.03;;
7211;SDS011;3647;48.792;9.802;2023-03-14T19:00:39;3.37;;;2.30;;
7211;SDS011;3647;48.792;9.802;2023-03-14T19:03:06;3.30;;;2.40;;
7211;SDS011;3647;48.792;9.802;2023-03-14T19:05:32;2.60;;;2.40;;
7211;SDS011;3647;48.792;9.802;2023-03-14T19:08:01;4.83;;;2.47;;
7211;SDS011;3647;48.792;9.802;2023-03-14T19:10:27;4.07;;;2.87;;
7211;SDS011;3647;48.792;9.802;2023-03-14T19:12:57;5.87;;;2.73;;
7211;SDS011;3647;48.792;9.802;2023-03-14T19:15:24;3.30;;;3.00;;
7211;SDS011;3647;48.792;9.802;2023-03-14T19:17:50;7.80;;;3.40;;
7211;SDS011;3647;48.792;9.802;2023-03-14T19:20:17;5.07;;;2.70;;
7211;SDS011;3647;48.792;9.802;2023-03-14T19:22:44;6.37;;;3.43;;
7211;SDS011;3647;48.792;9.802;2023-03-14T19:25:14;4.27;;;2.73;;
7211;SDS011;3647;48.792;9.802;2023-03-14T19:27:40;3.37;;;2.40;;
7211;SDS011;3647;48.792;9.802;2023-03-14T19:30:07;4.07;;;2.60;;
7211;SDS011;3647;48.792;9.802;2023-03-14T19:32:35;2.40;;;2.20;;
7211;SDS011;3647;48.792;9.802;2023-03-14T19:35:02;1.80;;;1.70;;
7211;SDS011;3647;48.792;9.802;2023-03-14T19:37:29;1.83;;;1.73;;
7211;SDS011;3647;48.792;9.802;2023-03-14T19:39:55;2.30;;;2.10;;
7211;SDS011;3647;48.792;9.802;2023-03-14T19:42:24;2.63;;;2.40;;
7211;SDS011;3647;48.792;9.802;2023-03-14T19:44:50;2.83;;;2.57;;
7211;SDS011;3647;48.792;9.802;2023-03-14T19:49:47;2.40;;;2.20;;
7211;SDS011;3647;48.792;9.802;2023-03-14T19:52:14;2.67;;;2.00;;
7211;SDS011;3647;48.792;9.802;2023-03-14T19:54:41;2.30;;;2.10;;
7211;SDS011;3647;48.792;9.802;2023-03-14T19:57:07;2.57;;;2.37;;
7211;SDS011;3647;48.792;9.802;2023-03-14T19:59:36;3.00;;;2.70;;
7211;SDS011;3647;48.792;9.802;2023-03-14T20:02:02;2.80;;;2.60;;
7211;SDS011;3647;48.792;9.802;2023-03-14T20:04:29;4.20;;;2.20;;
7211;SDS011;3647;48.792;9.802;2023-03-14T20:06:57;2.63;;;2.43;;
7211;SDS011;3647;48.792;9.802;2023-03-14T20:09:28;3.23;;;2.70;;
7211;SDS011;3647;48.792;9.802;2023-03-14T20:11:56;3.23;;;2.93;;
7211;SDS011;3647;48.792;9.802;2023-03-14T20:14:22;5.07;;;2.80;;
7211;SDS011;3647;48.792;9.802;2023-03-14T20:16:51;3.10;;;2.80;;
7211;SDS011;3647;48.792;9.802;2023-03-14T20:19:18;3.53;;;2.73;;
7211;SDS011;3647;48.792;9.802;2023-03-14T20:21:46;4.30;;;3.07;;
7211;SDS011;3647;48.792;9.802;2023-03-14T20:24:12;2.83;;;2.40;;
7211;SDS011;3647;48.792;9.802;2023-03-14T20:26:39;2.77;;;2.33;;
7211;SDS011;3647;48.792;9.802;2023-03-14T20:29:06;5.03;;;3.23;;
7211;SDS011;3647;48.792;9.802;2023-03-14T20:31:33;5.53;;;2.67;;
7211;SDS011;3647;48.792;9.802;2023-03-14T20:34:03;6.47;;;2.70;;
7211;SDS011;3647;48.792;9.802;2023-03-14T20:36:30;5.00;;;2.70;;
7211;SDS011;3647;48.792;9.802;2023-03-14T20:38:58;4.07;;;2.47;;
7211;SDS011;3647;48.792;9.802;2023-03-14T20:41:25;5.67;;;2.47;;
7211;SDS011;3647;48.792;9.802;2023-03-14T20:43:52;2.60;;;2.50;;
7211;SDS011;3647;48.792;9.802;2023-03-14T20:46:19;5.17;;;3.10;;
7211;SDS011;3647;48.792;9.802;2023-03-14T20:48:46;3.27;;;2.60;;
7211;SDS011;3647;48.792;9.802;2023-03-14T20:51:14;3.23;;;2.60;;
7211;SDS011;3647;48.792;9.802;2023-03-14T20:53:41;2.47;;;2.33;;
7211;SDS011;3647;48.792;9.802;2023-03-14T20:56:09;2.50;;;2.30;;
7211;SDS011;3647;48.792;9.802;2023-03-14T20:58:35;2.90;;;2.70;;
7211;SDS011;3647;48.792;9.802;2023-03-14T21:01:03;3.30;;;2.87;;
7211;SDS011;3647;48.792;9.802;2023-03-14T21:03:30;3.40;;;2.50;;
7211;SDS011;3647;48.792;9.802;2023-03-14T21:05:57;2.90;;;2.70;;
7211;SDS011;3647;48.792;9.802;2023-03-14T21:08:25;3.77;;;3.37;;
7211;SDS011;3647;48.792;9.802;2023-03-14T21:10:53;4.50;;;3.23;;
